Terminal Aerodrome Forecast
Issued by NWS

Home | Current Version | Previous Version | Text Only | Print | Product List | Glossary On
Versions: 1 2 3 4 5 6 7 8 9 10 11 12 13 14 15 16
354
FTUS43 KAPX 172335
TAFAPN
TAF
KAPN 172335Z 1800/1824 16013KT P6SM SHRA OVC025 WS020/18035KT
     FM180300 17008KT 4SM SHRA OVC015
     FM181000 18004KT 3SM SHRA OVC008
     FM181200 VRB03KT P6SM VCSH OVC008
     FM181400 30004KT P6SM VCSH OVC004
     FM181700 33007KT P6SM VCSH OVC010
     FM182000 34011G20KT 2SM SHRA OVC010
     FM182300 34012G22KT 3SM SHRA OVC015=

USA.gov is the U.S. government's official web portal to all federal, state and local government web resources and services.